Time;durP1;ratioP1;P1;durP2;ratioP2;P2;SDS_P1;SDS_P2;PMS_P1;PMS_P2;Temp;Humidity;BMP_temperature;BMP_pressure;BME280_temperature;BME280_humidity;BME280_pressure;Samples;Min_cycle;Max_cycle;Signal;HPM_P1;HPM_P2
2021/12/07 00:01:43;;;;;;;9.37;7.50;;;;;;;;;;6185376;23;20509;-91
2021/12/07 00:04:10;;;;;;;12.07;8.17;;;;;;;;;;6185662;23;20703;-91
2021/12/07 00:06:38;;;;;;;11.37;7.53;;;;;;;;;;6185554;23;20244;-91
2021/12/07 00:09:06;;;;;;;13.37;7.53;;;;;;;;;;6185956;23;20258;-90
2021/12/07 00:11:34;;;;;;;10.27;6.40;;;;;;;;;;6186076;23;20179;-91
2021/12/07 00:14:11;;;;;;;10.37;7.17;;;;;;;;;;6185917;23;20241;-91
2021/12/07 00:16:38;;;;;;;11.03;7.37;;;;;;;;;;6185736;23;20174;-91
2021/12/07 00:19:06;;;;;;;11.40;7.77;;;;;;;;;;6185367;23;20199;-90
2021/12/07 00:21:33;;;;;;;12.60;7.23;;;;;;;;;;6185279;23;20179;-90
2021/12/07 00:24:01;;;;;;;10.70;7.47;;;;;;;;;;6185514;23;20197;-91
2021/12/07 00:26:28;;;;;;;11.33;7.73;;;;;;;;;;6185825;23;20175;-90
2021/12/07 00:28:56;;;;;;;11.20;7.33;;;;;;;;;;6185325;23;20265;-90
2021/12/07 00:31:28;;;;;;;13.73;7.13;;;;;;;;;;6185764;23;20213;-91
2021/12/07 00:34:09;;;;;;;9.77;6.77;;;;;;;;;;6185335;23;20171;-90
2021/12/07 00:36:37;;;;;;;12.30;7.00;;;;;;;;;;6185626;23;20171;-91
2021/12/07 00:39:05;;;;;;;9.60;6.57;;;;;;;;;;6185606;23;20199;-90
2021/12/07 00:41:32;;;;;;;9.23;6.27;;;;;;;;;;6185572;23;20179;-90
2021/12/07 00:44:01;;;;;;;12.10;7.60;;;;;;;;;;6185245;23;20249;-90
2021/12/07 00:46:30;;;;;;;14.17;7.93;;;;;;;;;;6185477;23;20178;-91
2021/12/07 00:48:57;;;;;;;9.93;7.63;;;;;;;;;;6185083;23;20199;-90
2021/12/07 00:51:25;;;;;;;10.80;7.43;;;;;;;;;;6185172;23;20179;-91
2021/12/07 00:53:52;;;;;;;8.57;6.80;;;;;;;;;;6185570;23;20808;-90
2021/12/07 00:56:20;;;;;;;10.93;6.87;;;;;;;;;;6185534;23;20186;-91
2021/12/07 00:58:47;;;;;;;10.27;6.50;;;;;;;;;;6185348;23;20198;-90
2021/12/07 01:01:16;;;;;;;9.60;6.57;;;;;;;;;;6185655;23;20186;-90
2021/12/07 01:03:45;;;;;;;10.20;5.90;;;;;;;;;;6185095;23;20249;-90
2021/12/07 01:06:20;;;;;;;8.20;5.73;;;;;;;;;;6185453;23;20515;-90
2021/12/07 01:09:01;;;;;;;8.63;5.63;;;;;;;;;;6185000;23;20496;-90
2021/12/07 01:25:25;;;;;;;6.57;5.00;;;;;;;;;;6185261;23;20193;-90
2021/12/07 01:27:55;;;;;;;5.67;4.63;;;;;;;;;;6185330;23;20183;-90
2021/12/07 01:30:36;;;;;;;8.10;5.33;;;;;;;;;;6184910;23;20198;-90
2021/12/07 01:33:19;;;;;;;6.70;5.03;;;;;;;;;;6185196;23;20178;-91
2021/12/07 01:36:06;;;;;;;6.47;5.20;;;;;;;;;;6185428;23;20193;-91
2021/12/07 01:39:33;;;;;;;5.73;5.00;;;;;;;;;;6184993;23;20198;-90
2021/12/07 01:41:47;;;;;;;11.13;6.77;;;;;;;;;;6184311;23;20179;-91
2021/12/07 01:44:36;;;;;;;8.60;6.00;;;;;;;;;;6185023;23;20191;-91
2021/12/07 01:47:24;;;;;;;10.43;6.40;;;;;;;;;;6185004;23;20174;-91
2021/12/07 01:52:52;;;;;;;7.97;5.70;;;;;;;;;;6183103;23;20224;-90
2021/12/07 02:01:00;;;;;;;7.60;5.03;;;;;;;;;;6184394;23;20163;-91
2021/12/07 02:03:28;;;;;;;8.50;5.57;;;;;;;;;;6184298;23;20186;-91
2021/12/07 02:05:55;;;;;;;7.37;4.80;;;;;;;;;;6184792;23;20547;-91
2021/12/07 02:08:24;;;;;;;8.07;5.07;;;;;;;;;;6184212;23;20206;-90
2021/12/07 02:10:57;;;;;;;6.03;4.53;;;;;;;;;;6184729;23;20236;-90
2021/12/07 02:14:05;;;;;;;10.07;5.17;;;;;;;;;;6185011;23;20223;-90
2021/12/07 02:16:15;;;;;;;6.97;4.93;;;;;;;;;;6184453;23;20184;-90
2021/12/07 02:18:42;;;;;;;5.23;4.63;;;;;;;;;;6184675;23;20194;-91
2021/12/07 02:21:25;;;;;;;5.93;4.23;;;;;;;;;;6184679;23;20189;-92
2021/12/07 02:23:52;;;;;;;5.47;4.20;;;;;;;;;;6184843;23;20555;-91
2021/12/07 02:26:20;;;;;;;6.07;4.60;;;;;;;;;;6184604;23;20175;-90
2021/12/07 02:28:49;;;;;;;5.30;4.10;;;;;;;;;;6184263;23;20678;-90
2021/12/07 02:31:17;;;;;;;4.63;3.57;;;;;;;;;;6184444;23;20179;-90
2021/12/07 02:33:44;;;;;;;5.73;3.27;;;;;;;;;;6184385;23;20610;-91
2021/12/07 02:36:12;;;;;;;6.27;4.03;;;;;;;;;;6184654;23;20178;-90
2021/12/07 02:38:40;;;;;;;6.83;3.90;;;;;;;;;;6184290;23;20542;-90
2021/12/07 02:41:08;;;;;;;3.73;3.23;;;;;;;;;;6184876;23;20179;-91
2021/12/07 02:43:35;;;;;;;7.13;3.50;;;;;;;;;;6184561;23;20241;-91
2021/12/07 02:46:03;;;;;;;4.97;3.50;;;;;;;;;;6184586;23;20195;-90
2021/12/07 02:48:30;;;;;;;4.17;3.30;;;;;;;;;;6184634;23;20175;-91
2021/12/07 02:50:58;;;;;;;3.10;2.40;;;;;;;;;;6184245;23;20182;-91
2021/12/07 02:53:27;;;;;;;3.97;2.40;;;;;;;;;;6185899;23;20178;-90
2021/12/07 02:55:56;;;;;;;6.03;2.83;;;;;;;;;;6186569;23;20252;-90
2021/12/07 02:58:24;;;;;;;2.37;2.17;;;;;;;;;;6186592;23;20179;-90
2021/12/07 03:00:58;;;;;;;3.33;1.93;;;;;;;;;;6186084;23;20178;-90
2021/12/07 03:03:27;;;;;;;3.07;2.03;;;;;;;;;;6186457;23;20170;-91
2021/12/07 03:06:05;;;;;;;2.73;2.30;;;;;;;;;;6186402;23;20195;-90
2021/12/07 03:27:57;;;;;;;1.70;1.53;;;;;;;;;;6185775;23;20174;-90
2021/12/07 03:30:25;;;;;;;2.00;1.87;;;;;;;;;;6185723;23;20199;-90
2021/12/07 03:32:53;;;;;;;1.97;1.60;;;;;;;;;;6186339;23;20618;-90
2021/12/07 03:35:20;;;;;;;1.67;1.33;;;;;;;;;;6185001;23;20174;-90
2021/12/07 03:37:48;;;;;;;2.50;1.80;;;;;;;;;;6185396;23;20179;-91
2021/12/07 03:40:15;;;;;;;2.03;1.60;;;;;;;;;;6186089;23;20244;-90
2021/12/07 03:42:43;;;;;;;1.83;1.50;;;;;;;;;;6186300;23;20174;-90
2021/12/07 03:45:12;;;;;;;1.90;1.70;;;;;;;;;;6185088;23;20198;-90
2021/12/07 03:47:40;;;;;;;1.60;1.50;;;;;;;;;;6185465;23;20182;-90
2021/12/07 03:50:08;;;;;;;1.90;1.70;;;;;;;;;;6185813;23;20198;-90
2021/12/07 03:52:35;;;;;;;1.70;1.13;;;;;;;;;;6186062;23;20182;-90
2021/12/07 03:55:02;;;;;;;2.00;1.80;;;;;;;;;;6184584;23;20681;-90
2021/12/07 03:57:30;;;;;;;1.70;1.60;;;;;;;;;;6185596;23;20181;-89
2021/12/07 03:59:57;;;;;;;2.07;1.60;;;;;;;;;;6182124;23;20194;-91
2021/12/07 04:02:26;;;;;;;1.67;1.57;;;;;;;;;;6185798;23;20183;-90
2021/12/07 04:05:00;;;;;;;2.63;1.70;;;;;;;;;;6182921;23;20559;-90
2021/12/07 04:07:27;;;;;;;3.07;1.60;;;;;;;;;;6185247;23;20186;-90
2021/12/07 04:09:54;;;;;;;1.50;1.30;;;;;;;;;;6185738;23;20833;-90
2021/12/07 04:12:22;;;;;;;1.80;1.70;;;;;;;;;;6185831;23;20171;-90
2021/12/07 04:14:49;;;;;;;3.10;1.40;;;;;;;;;;6184715;23;20175;-91
2021/12/07 04:17:18;;;;;;;1.50;1.40;;;;;;;;;;6185332;23;20617;-90
2021/12/07 04:19:46;;;;;;;1.70;1.60;;;;;;;;;;6185578;23;20281;-91
2021/12/07 04:22:14;;;;;;;1.63;1.20;;;;;;;;;;6184643;23;20502;-91
2021/12/07 04:24:41;;;;;;;1.30;1.20;;;;;;;;;;6185622;23;20642;-91
2021/12/07 04:27:08;;;;;;;3.50;1.40;;;;;;;;;;6185277;23;20182;-91
2021/12/07 04:29:36;;;;;;;1.40;1.17;;;;;;;;;;6184844;23;20194;-91
2021/12/07 04:32:03;;;;;;;0.80;0.70;;;;;;;;;;6185406;23;20614;-91
2021/12/07 04:34:31;;;;;;;1.00;1.00;;;;;;;;;;6185546;23;20174;-91
2021/12/07 04:36:59;;;;;;;1.17;1.00;;;;;;;;;;6185662;23;20179;-92
2021/12/07 04:39:27;;;;;;;0.97;0.97;;;;;;;;;;6184308;23;20198;-91
2021/12/07 04:41:54;;;;;;;1.13;1.03;;;;;;;;;;6184906;23;20241;-91
2021/12/07 04:44:23;;;;;;;1.87;1.20;;;;;;;;;;6185655;23;20175;-91
2021/12/07 04:47:02;;;;;;;1.13;1.07;;;;;;;;;;6185388;23;20489;-91
2021/12/07 04:49:54;;;;;;;3.63;1.20;;;;;;;;;;6185060;23;20213;-91
2021/12/07 04:57:53;;;;;;;1.20;1.10;;;;;;;;;;6183834;23;20158;-91
2021/12/07 05:00:21;;;;;;;1.17;1.07;;;;;;;;;;6184940;23;20249;-91
2021/12/07 05:02:54;;;;;;;2.07;1.27;;;;;;;;;;6185454;23;20181;-91
2021/12/07 05:05:23;;;;;;;1.37;1.27;;;;;;;;;;6184071;23;20201;-91
2021/12/07 05:07:54;;;;;;;1.63;1.40;;;;;;;;;;6184550;23;20183;-91
2021/12/07 05:10:31;;;;;;;1.20;1.10;;;;;;;;;;6185226;23;20198;-91
2021/12/07 05:18:57;;;;;;;0.87;0.87;;;;;;;;;;6130343;23;20195;-91
2021/12/07 05:24:16;;;;;;;3.33;1.17;;;;;;;;;;6184955;23;20158;-92
2021/12/07 05:37:49;;;;;;;2.03;1.07;;;;;;;;;;6184487;23;20159;-92
2021/12/07 05:40:19;;;;;;;2.77;1.40;;;;;;;;;;6185139;23;20222;-90
2021/12/07 05:42:47;;;;;;;0.70;0.57;;;;;;;;;;6185194;23;20198;-91
2021/12/07 05:45:16;;;;;;;0.90;0.90;;;;;;;;;;6184581;23;20194;-91
2021/12/07 05:47:43;;;;;;;1.33;0.97;;;;;;;;;;6185085;23;20179;-90
2021/12/07 05:50:13;;;;;;;1.73;0.87;;;;;;;;;;6184981;23;20261;-90
2021/12/07 05:55:45;;;;;;;0.70;0.67;;;;;;;;;;6184759;23;20637;-90
2021/12/07 05:58:12;;;;;;;1.17;0.80;;;;;;;;;;6184604;23;20186;-90
2021/12/07 06:00:43;;;;;;;1.20;0.70;;;;;;;;;;6184836;23;20199;-90
2021/12/07 06:03:10;;;;;;;0.53;0.53;;;;;;;;;;6184920;23;20171;-90
2021/12/07 06:05:39;;;;;;;1.03;0.70;;;;;;;;;;6184409;23;20199;-90
2021/12/07 06:08:06;;;;;;;0.70;0.70;;;;;;;;;;6184605;23;20194;-90
2021/12/07 06:10:34;;;;;;;1.00;0.90;;;;;;;;;;6184693;23;20249;-91
2021/12/07 06:13:03;;;;;;;1.53;0.80;;;;;;;;;;6184400;23;20179;-90
2021/12/07 06:15:34;;;;;;;1.03;0.90;;;;;;;;;;6184757;23;20171;-90
2021/12/07 06:18:01;;;;;;;0.93;0.90;;;;;;;;;;6184877;23;20190;-90
2021/12/07 06:20:29;;;;;;;0.90;0.90;;;;;;;;;;6184565;23;20200;-90
2021/12/07 06:22:56;;;;;;;3.40;1.00;;;;;;;;;;6184686;23;20209;-89
2021/12/07 06:25:24;;;;;;;0.80;0.80;;;;;;;;;;6184692;23;20198;-90
2021/12/07 06:27:51;;;;;;;1.50;0.70;;;;;;;;;;6185762;23;20552;-90
2021/12/07 06:30:20;;;;;;;1.87;1.00;;;;;;;;;;6186749;23;20649;-90
2021/12/07 06:32:47;;;;;;;3.10;0.90;;;;;;;;;;6186797;23;20182;-90
2021/12/07 06:35:14;;;;;;;1.37;1.00;;;;;;;;;;6186672;23;20234;-90
2021/12/07 06:37:42;;;;;;;2.33;0.80;;;;;;;;;;6186633;23;20637;-90
2021/12/07 06:40:11;;;;;;;0.93;0.93;;;;;;;;;;6187202;23;20273;-90
2021/12/07 06:42:40;;;;;;;0.87;0.70;;;;;;;;;;6188149;23;20198;-90
2021/12/07 06:45:08;;;;;;;1.47;0.90;;;;;;;;;;6194812;23;20270;-91
2021/12/07 06:47:37;;;;;;;1.33;0.70;;;;;;;;;;6186860;23;20178;-90
2021/12/07 06:50:05;;;;;;;1.20;0.90;;;;;;;;;;6186688;23;20661;-90
2021/12/07 06:52:32;;;;;;;1.07;0.97;;;;;;;;;;6186790;23;20181;-90
2021/12/07 06:55:00;;;;;;;2.20;1.10;;;;;;;;;;6186719;23;20520;-90
2021/12/07 06:57:27;;;;;;;1.03;0.90;;;;;;;;;;6186574;23;20190;-90
2021/12/07 06:59:55;;;;;;;1.10;0.97;;;;;;;;;;6188721;23;20245;-90
2021/12/07 07:02:22;;;;;;;0.80;0.80;;;;;;;;;;6186355;23;20561;-91
2021/12/07 07:04:51;;;;;;;3.80;0.80;;;;;;;;;;6186694;23;20186;-90
2021/12/07 07:07:22;;;;;;;0.93;0.70;;;;;;;;;;6186529;23;20664;-90
2021/12/07 07:09:50;;;;;;;4.27;1.10;;;;;;;;;;6192840;23;20198;-91
2021/12/07 07:12:18;;;;;;;1.13;0.77;;;;;;;;;;6186566;23;20182;-90
2021/12/07 07:14:45;;;;;;;0.70;0.70;;;;;;;;;;6186582;23;20183;-90
2021/12/07 07:17:12;;;;;;;2.00;1.10;;;;;;;;;;6186498;23;20170;-90
2021/12/07 07:19:40;;;;;;;1.57;0.90;;;;;;;;;;6186296;23;20497;-91
2021/12/07 07:22:09;;;;;;;1.07;1.00;;;;;;;;;;6186410;23;20183;-90
2021/12/07 07:24:36;;;;;;;1.80;1.10;;;;;;;;;;6186520;23;20228;-90
2021/12/07 07:27:04;;;;;;;1.43;1.00;;;;;;;;;;6186331;23;20191;-90
2021/12/07 07:29:31;;;;;;;0.70;0.63;;;;;;;;;;6186443;23;20257;-90
2021/12/07 07:31:59;;;;;;;1.30;0.90;;;;;;;;;;6186283;23;20174;-90
2021/12/07 07:34:26;;;;;;;1.20;0.90;;;;;;;;;;6186305;23;20233;-90
2021/12/07 07:36:53;;;;;;;1.37;1.13;;;;;;;;;;6186355;23;20198;-90
2021/12/07 07:39:22;;;;;;;1.00;0.90;;;;;;;;;;6185723;23;20512;-91
2021/12/07 07:41:50;;;;;;;0.90;0.80;;;;;;;;;;6186140;23;20194;-90
2021/12/07 07:44:17;;;;;;;1.23;1.07;;;;;;;;;;6186254;23;20178;-91
2021/12/07 07:46:44;;;;;;;1.30;1.20;;;;;;;;;;6186128;23;20194;-91
2021/12/07 07:49:12;;;;;;;1.37;0.97;;;;;;;;;;6185803;23;20265;-91
2021/12/07 07:51:39;;;;;;;2.27;1.40;;;;;;;;;;6186110;23;20174;-91
2021/12/07 07:54:07;;;;;;;1.17;0.73;;;;;;;;;;6186264;23;20701;-91
2021/12/07 07:56:37;;;;;;;3.60;0.80;;;;;;;;;;6186116;23;20237;-91
2021/12/07 07:59:05;;;;;;;1.80;1.70;;;;;;;;;;6186013;23;20199;-91
2021/12/07 08:01:32;;;;;;;1.87;1.03;;;;;;;;;;6186065;23;20186;-90
2021/12/07 08:04:01;;;;;;;4.67;1.20;;;;;;;;;;6186259;23;20178;-91
2021/12/07 08:06:28;;;;;;;2.30;1.10;;;;;;;;;;6185584;23;20195;-92
2021/12/07 08:08:55;;;;;;;1.00;1.00;;;;;;;;;;6186196;23;20194;-91
2021/12/07 08:11:23;;;;;;;1.10;1.00;;;;;;;;;;6185784;23;20178;-90
2021/12/07 08:13:52;;;;;;;2.97;1.10;;;;;;;;;;6185969;23;20179;-91
2021/12/07 08:16:19;;;;;;;1.00;1.00;;;;;;;;;;6185990;23;20236;-92
2021/12/07 08:18:47;;;;;;;1.10;0.87;;;;;;;;;;6186012;23;20195;-91
2021/12/07 08:21:16;;;;;;;1.47;1.07;;;;;;;;;;6185423;23;20510;-90
2021/12/07 08:23:44;;;;;;;1.93;0.90;;;;;;;;;;6186085;23;20174;-90
2021/12/07 08:26:13;;;;;;;0.77;0.77;;;;;;;;;;6184589;23;20194;-91
2021/12/07 08:28:41;;;;;;;1.13;0.80;;;;;;;;;;6182353;23;20249;-93
2021/12/07 08:31:09;;;;;;;3.10;1.17;;;;;;;;;;6183359;23;20185;-91
2021/12/07 08:33:37;;;;;;;0.90;0.90;;;;;;;;;;6182740;23;20602;-91
2021/12/07 08:36:05;;;;;;;1.37;0.83;;;;;;;;;;6181894;23;20496;-91
2021/12/07 08:38:32;;;;;;;1.00;0.90;;;;;;;;;;6183189;23;20245;-91
2021/12/07 08:41:00;;;;;;;1.80;0.90;;;;;;;;;;6182528;23;20178;-90
2021/12/07 08:43:29;;;;;;;0.80;0.80;;;;;;;;;;6182303;23;20186;-91
2021/12/07 08:45:57;;;;;;;1.50;0.60;;;;;;;;;;6182640;23;20194;-93
2021/12/07 08:48:26;;;;;;;1.13;1.00;;;;;;;;;;6182561;23;20181;-90
2021/12/07 08:50:54;;;;;;;1.57;1.47;;;;;;;;;;6182044;23;20384;-90
2021/12/07 08:53:23;;;;;;;2.17;1.00;;;;;;;;;;6182266;23;20186;-91
2021/12/07 09:01:23;;;;;;;1.10;1.00;;;;;;;;;;6185298;23;20159;-91
2021/12/07 09:03:52;;;;;;;1.10;1.00;;;;;;;;;;6185001;23;20175;-90
2021/12/07 09:06:20;;;;;;;1.23;1.10;;;;;;;;;;6184857;23;20190;-91
2021/12/07 09:08:47;;;;;;;1.60;0.73;;;;;;;;;;6185217;23;20194;-90
2021/12/07 09:11:15;;;;;;;2.37;1.10;;;;;;;;;;6185037;23;20182;-90
2021/12/07 09:13:43;;;;;;;1.03;0.97;;;;;;;;;;6185001;23;20182;-91
2021/12/07 09:16:17;;;;;;;1.60;1.50;;;;;;;;;;6184864;23;20182;-91
2021/12/07 09:18:45;;;;;;;4.67;1.60;;;;;;;;;;6185103;23;20273;-92
2021/12/07 09:21:14;;;;;;;2.67;1.40;;;;;;;;;;6185288;23;20874;-90
2021/12/07 09:23:41;;;;;;;3.77;1.57;;;;;;;;;;6185168;23;20178;-91
2021/12/07 09:26:10;;;;;;;3.57;1.97;;;;;;;;;;6185064;23;20201;-91
2021/12/07 09:28:38;;;;;;;1.93;1.40;;;;;;;;;;6184805;23;20178;-90
2021/12/07 09:31:05;;;;;;;2.97;1.57;;;;;;;;;;6184622;23;20237;-91
2021/12/07 09:33:33;;;;;;;3.00;1.60;;;;;;;;;;6185068;23;20712;-91
2021/12/07 09:36:00;;;;;;;1.80;1.30;;;;;;;;;;6185267;23;20175;-90
2021/12/07 09:38:29;;;;;;;1.30;1.07;;;;;;;;;;6184973;23;20248;-90
2021/12/07 09:40:57;;;;;;;1.93;1.50;;;;;;;;;;6185095;23;20182;-90
2021/12/07 09:43:24;;;;;;;2.33;1.50;;;;;;;;;;6185259;23;20181;-91
2021/12/07 09:45:52;;;;;;;2.23;1.20;;;;;;;;;;6184940;23;20205;-91
2021/12/07 09:48:19;;;;;;;2.27;1.17;;;;;;;;;;6185132;23;20182;-91
2021/12/07 09:50:49;;;;;;;1.27;1.10;;;;;;;;;;6185016;23;20181;-90
2021/12/07 09:53:17;;;;;;;2.40;1.10;;;;;;;;;;6185210;23;20175;-90
2021/12/07 09:55:47;;;;;;;1.03;1.00;;;;;;;;;;6184864;23;20233;-90
2021/12/07 09:58:14;;;;;;;2.53;1.53;;;;;;;;;;6184809;23;20178;-90
2021/12/07 10:00:43;;;;;;;2.47;1.10;;;;;;;;;;6184735;23;20302;-91
2021/12/07 10:03:11;;;;;;;1.30;1.20;;;;;;;;;;6184297;23;20235;-90
2021/12/07 10:05:40;;;;;;;1.90;1.10;;;;;;;;;;6184997;23;20179;-91
2021/12/07 10:08:08;;;;;;;1.23;0.83;;;;;;;;;;6184309;23;20249;-91
2021/12/07 10:10:37;;;;;;;0.93;0.93;;;;;;;;;;6184642;23;20202;-90
2021/12/07 10:13:07;;;;;;;2.17;1.20;;;;;;;;;;6184630;23;20179;-91
2021/12/07 10:15:34;;;;;;;2.33;1.40;;;;;;;;;;6184888;23;20495;-90
2021/12/07 10:18:06;;;;;;;2.47;1.10;;;;;;;;;;6189702;23;20692;-90
2021/12/07 10:20:40;;;;;;;2.27;1.30;;;;;;;;;;6190008;23;20736;-92
2021/12/07 10:23:23;;;;;;;1.57;1.47;;;;;;;;;;6186247;23;20182;-92
2021/12/07 10:25:54;;;;;;;1.47;1.23;;;;;;;;;;6184711;23;20241;-93
2021/12/07 10:28:32;;;;;;;1.77;1.27;;;;;;;;;;6184628;23;20189;-91
2021/12/07 10:31:02;;;;;;;2.60;1.00;;;;;;;;;;6184894;23;20174;-91
2021/12/07 10:33:31;;;;;;;2.07;1.10;;;;;;;;;;6184700;23;20241;-92
2021/12/07 10:36:16;;;;;;;2.00;1.10;;;;;;;;;;6184289;23;20181;-91
2021/12/07 10:38:47;;;;;;;7.03;2.10;;;;;;;;;;6184486;23;20712;-92
2021/12/07 10:41:21;;;;;;;0.77;0.77;;;;;;;;;;6183683;23;20170;-91
2021/12/07 10:44:14;;;;;;;2.07;1.27;;;;;;;;;;6184440;23;20183;-91
2021/12/07 10:46:50;;;;;;;1.17;1.07;;;;;;;;;;6184335;23;20191;-91
2021/12/07 10:49:22;;;;;;;5.37;1.37;;;;;;;;;;6184812;23;20198;-91
2021/12/07 10:52:00;;;;;;;2.03;1.00;;;;;;;;;;6184885;23;20183;-91
2021/12/07 10:54:28;;;;;;;4.20;0.90;;;;;;;;;;6184969;23;20186;-92
2021/12/07 10:56:56;;;;;;;3.07;0.90;;;;;;;;;;6184909;23;20225;-91
2021/12/07 10:59:23;;;;;;;2.60;1.23;;;;;;;;;;6184499;23;20198;-92
2021/12/07 11:01:54;;;;;;;3.90;1.33;;;;;;;;;;6184590;23;20233;-91
2021/12/07 11:04:26;;;;;;;3.30;1.10;;;;;;;;;;6184645;23;20178;-91
2021/12/07 11:07:11;;;;;;;4.40;1.33;;;;;;;;;;6184734;23;20198;-91
2021/12/07 11:09:40;;;;;;;1.40;1.30;;;;;;;;;;6185412;23;20245;-91
2021/12/07 11:12:08;;;;;;;2.30;1.40;;;;;;;;;;6190147;23;20175;-93
2021/12/07 11:14:51;;;;;;;3.50;1.30;;;;;;;;;;6187622;23;20178;-92
2021/12/07 11:17:21;;;;;;;1.77;1.10;;;;;;;;;;6185398;23;20178;-92
2021/12/07 11:19:51;;;;;;;3.33;1.20;;;;;;;;;;6185658;23;20198;-92
2021/12/07 11:22:19;;;;;;;1.93;0.97;;;;;;;;;;6186811;23;20186;-92
2021/12/07 11:24:48;;;;;;;2.83;1.20;;;;;;;;;;6185395;23;20178;-92
2021/12/07 11:30:10;;;;;;;4.10;1.77;;;;;;;;;;6197689;23;20704;-91
2021/12/07 11:32:42;;;;;;;1.43;1.00;;;;;;;;;;6187061;23;20178;-91
2021/12/07 11:35:12;;;;;;;1.97;1.10;;;;;;;;;;6186920;23;20171;-90
2021/12/07 11:37:40;;;;;;;2.30;0.90;;;;;;;;;;6186782;23;20175;-91
2021/12/07 11:40:09;;;;;;;3.33;1.20;;;;;;;;;;6187356;23;20199;-91
2021/12/07 11:42:41;;;;;;;3.77;1.00;;;;;;;;;;6185209;23;20179;-91
2021/12/07 11:45:12;;;;;;;2.97;0.80;;;;;;;;;;6186995;23;20203;-91
2021/12/07 11:47:42;;;;;;;1.57;0.90;;;;;;;;;;6198478;23;20186;-91
2021/12/07 11:50:28;;;;;;;5.57;1.13;;;;;;;;;;6195225;23;20195;-91
2021/12/07 11:53:02;;;;;;;0.80;0.80;;;;;;;;;;6197283;23;20171;-92
2021/12/07 11:55:31;;;;;;;3.87;0.80;;;;;;;;;;6191621;23;20175;-93
2021/12/07 11:57:59;;;;;;;5.03;1.30;;;;;;;;;;6199790;23;20171;-90
2021/12/07 12:00:28;;;;;;;1.43;0.97;;;;;;;;;;6197494;23;20383;-89
2021/12/07 12:02:57;;;;;;;2.60;1.10;;;;;;;;;;6195616;23;20178;-92
2021/12/07 12:05:33;;;;;;;2.43;0.93;;;;;;;;;;6196874;23;20214;-93
2021/12/07 12:08:01;;;;;;;3.80;0.80;;;;;;;;;;6197972;23;20406;-92
2021/12/07 12:10:30;;;;;;;2.20;0.90;;;;;;;;;;6197309;23;20194;-93
2021/12/07 12:13:12;;;;;;;1.17;1.07;;;;;;;;;;6198892;23;20175;-93
2021/12/07 12:15:47;;;;;;;2.00;0.80;;;;;;;;;;6200579;23;20184;-93
2021/12/07 12:18:20;;;;;;;3.13;0.87;;;;;;;;;;6195645;23;20170;-92
2021/12/07 12:20:56;;;;;;;4.40;1.27;;;;;;;;;;6195461;23;20197;-92
2021/12/07 12:23:33;;;;;;;2.47;1.00;;;;;;;;;;6197950;23;20174;-93
2021/12/07 12:26:08;;;;;;;1.43;0.83;;;;;;;;;;6197974;23;20209;-91
2021/12/07 12:28:38;;;;;;;7.80;1.03;;;;;;;;;;6199041;23;20217;-92
2021/12/07 12:31:06;;;;;;;2.90;0.80;;;;;;;;;;6199576;23;20171;-92
2021/12/07 12:33:49;;;;;;;2.13;0.77;;;;;;;;;;6198559;23;20179;-92
2021/12/07 12:36:16;;;;;;;2.27;1.10;;;;;;;;;;6191380;23;20275;-93
2021/12/07 12:38:49;;;;;;;4.77;1.07;;;;;;;;;;6193490;23;20191;-89
2021/12/07 12:41:17;;;;;;;1.87;1.00;;;;;;;;;;6194116;23;20174;-92
2021/12/07 12:43:47;;;;;;;3.23;1.13;;;;;;;;;;6196989;23;20201;-92
2021/12/07 12:46:16;;;;;;;6.57;1.00;;;;;;;;;;6195156;23;20179;-92
2021/12/07 12:48:46;;;;;;;1.53;0.90;;;;;;;;;;6194204;23;20253;-93
2021/12/07 12:51:15;;;;;;;3.33;0.80;;;;;;;;;;6196671;23;20186;-91
2021/12/07 12:53:43;;;;;;;5.13;1.07;;;;;;;;;;6206277;23;20241;-93
2021/12/07 12:56:12;;;;;;;3.57;0.97;;;;;;;;;;6197558;23;20178;-93
2021/12/07 12:58:43;;;;;;;2.33;0.93;;;;;;;;;;6198194;23;20174;-93
2021/12/07 13:01:13;;;;;;;2.07;0.83;;;;;;;;;;6197295;23;20179;-93
2021/12/07 13:03:58;;;;;;;2.17;0.90;;;;;;;;;;6199124;23;20175;-96
2021/12/07 13:06:44;;;;;;;5.03;1.30;;;;;;;;;;6172962;23;20662;-91
2021/12/07 13:09:13;;;;;;;2.37;1.23;;;;;;;;;;6187652;23;20207;-91
2021/12/07 13:11:41;;;;;;;3.87;1.10;;;;;;;;;;6186320;23;20500;-92
2021/12/07 13:14:09;;;;;;;4.50;1.10;;;;;;;;;;6185744;23;20209;-91
2021/12/07 13:16:38;;;;;;;2.53;1.00;;;;;;;;;;6185603;23;20553;-91
2021/12/07 13:19:07;;;;;;;3.20;0.90;;;;;;;;;;6186143;23;20270;-91
2021/12/07 13:21:37;;;;;;;2.67;1.17;;;;;;;;;;6184512;23;20178;-91
2021/12/07 13:24:08;;;;;;;1.83;0.90;;;;;;;;;;6185855;23;20233;-91
2021/12/07 13:26:36;;;;;;;2.30;1.37;;;;;;;;;;6187496;23;20175;-91
2021/12/07 13:29:07;;;;;;;2.73;1.07;;;;;;;;;;6184345;23;20229;-92
2021/12/07 13:31:40;;;;;;;4.60;1.23;;;;;;;;;;6186851;23;20179;-91
2021/12/07 13:34:08;;;;;;;3.13;0.80;;;;;;;;;;6186422;23;20171;-91
2021/12/07 13:36:43;;;;;;;1.87;0.70;;;;;;;;;;6184668;23;20174;-92
2021/12/07 13:39:29;;;;;;;3.03;1.30;;;;;;;;;;6184076;23;20249;-91
2021/12/07 13:41:59;;;;;;;2.60;0.80;;;;;;;;;;6185382;23;20185;-91
2021/12/07 13:44:27;;;;;;;2.40;1.10;;;;;;;;;;6185117;23;20174;-90
2021/12/07 13:47:03;;;;;;;1.57;1.10;;;;;;;;;;6185290;23;20179;-91
2021/12/07 13:49:32;;;;;;;4.83;0.90;;;;;;;;;;6185364;23;20198;-92
2021/12/07 13:51:59;;;;;;;2.40;1.00;;;;;;;;;;6185386;23;20193;-92
2021/12/07 13:54:27;;;;;;;4.20;1.20;;;;;;;;;;6185273;23;20245;-90
2021/12/07 13:56:55;;;;;;;2.50;1.00;;;;;;;;;;6185272;23;20181;-91
2021/12/07 13:59:26;;;;;;;1.33;0.80;;;;;;;;;;6184478;23;20918;-91
2021/12/07 14:01:54;;;;;;;4.83;2.70;;;;;;;;;;6184993;23;20171;-91
2021/12/07 14:04:24;;;;;;;2.37;1.17;;;;;;;;;;6185030;23;20175;-91
2021/12/07 14:06:52;;;;;;;2.10;1.03;;;;;;;;;;6185132;23;20202;-91
2021/12/07 14:09:20;;;;;;;1.63;1.13;;;;;;;;;;6185060;23;20202;-91
2021/12/07 14:11:52;;;;;;;2.00;0.80;;;;;;;;;;6185099;23;20178;-91
2021/12/07 14:14:20;;;;;;;2.50;1.00;;;;;;;;;;6185057;23;20174;-90
2021/12/07 14:16:49;;;;;;;2.20;0.70;;;;;;;;;;6185125;23;20221;-91
2021/12/07 14:19:16;;;;;;;3.27;0.87;;;;;;;;;;6184428;23;20194;-91
2021/12/07 14:21:45;;;;;;;1.13;0.77;;;;;;;;;;6185499;23;20174;-91
2021/12/07 14:24:18;;;;;;;0.90;0.80;;;;;;;;;;6185200;23;20182;-91
2021/12/07 14:26:46;;;;;;;5.20;1.07;;;;;;;;;;6185261;23;20171;-90
2021/12/07 14:29:15;;;;;;;2.57;0.73;;;;;;;;;;6184962;23;20198;-91
2021/12/07 14:31:43;;;;;;;3.00;0.90;;;;;;;;;;6185043;23;20558;-91
2021/12/07 14:34:13;;;;;;;2.70;1.00;;;;;;;;;;6184901;23;20245;-90
2021/12/07 14:36:41;;;;;;;5.57;1.30;;;;;;;;;;6185034;23;20175;-91
2021/12/07 14:39:11;;;;;;;2.50;0.90;;;;;;;;;;6184612;23;20520;-92
2021/12/07 14:41:42;;;;;;;1.20;0.77;;;;;;;;;;6184607;23;20562;-91
2021/12/07 14:44:10;;;;;;;4.43;1.10;;;;;;;;;;6184543;23;20179;-91
2021/12/07 14:46:38;;;;;;;2.37;0.87;;;;;;;;;;6185229;23;20490;-91
2021/12/07 14:49:05;;;;;;;1.47;0.80;;;;;;;;;;6185805;23;20202;-91
2021/12/07 14:51:44;;;;;;;2.50;0.83;;;;;;;;;;6187335;23;20233;-91
2021/12/07 14:54:11;;;;;;;1.23;0.90;;;;;;;;;;6186997;23;20167;-91
2021/12/07 14:56:39;;;;;;;2.73;1.20;;;;;;;;;;6186686;23;20233;-91
2021/12/07 14:59:07;;;;;;;4.03;0.80;;;;;;;;;;6186749;23;20244;-91
2021/12/07 15:01:36;;;;;;;4.10;0.87;;;;;;;;;;6186774;23;20175;-91
2021/12/07 15:04:04;;;;;;;1.17;0.90;;;;;;;;;;6186741;23;20178;-91
2021/12/07 15:06:33;;;;;;;3.40;1.20;;;;;;;;;;6186772;23;20245;-91
2021/12/07 15:09:03;;;;;;;0.83;0.67;;;;;;;;;;6185968;23;20206;-92
2021/12/07 15:11:30;;;;;;;1.80;0.60;;;;;;;;;;6186648;23;20547;-92
2021/12/07 15:13:57;;;;;;;2.90;0.90;;;;;;;;;;6186920;23;20237;-91
2021/12/07 15:16:25;;;;;;;1.60;0.90;;;;;;;;;;6186614;23;20182;-91
2021/12/07 15:18:52;;;;;;;2.50;1.00;;;;;;;;;;6186319;23;20202;-91
2021/12/07 15:21:20;;;;;;;2.10;0.73;;;;;;;;;;6186692;23;20186;-92
2021/12/07 15:23:48;;;;;;;2.10;0.90;;;;;;;;;;6186455;23;20175;-91
2021/12/07 15:26:17;;;;;;;2.53;1.07;;;;;;;;;;6185867;23;20626;-91
2021/12/07 15:28:55;;;;;;;1.37;0.80;;;;;;;;;;6185936;23;20209;-92
2021/12/07 15:31:22;;;;;;;1.60;0.73;;;;;;;;;;6186974;23;20182;-91
2021/12/07 15:33:50;;;;;;;3.07;1.07;;;;;;;;;;6186099;23;20233;-91
2021/12/07 15:36:19;;;;;;;3.20;1.17;;;;;;;;;;6186034;23;20179;-91
2021/12/07 15:38:46;;;;;;;2.43;0.83;;;;;;;;;;6185719;23;20202;-91
2021/12/07 15:41:13;;;;;;;3.13;1.20;;;;;;;;;;6186132;23;20229;-91
2021/12/07 15:43:44;;;;;;;2.13;1.10;;;;;;;;;;6185789;23;20543;-91
2021/12/07 15:46:15;;;;;;;4.23;1.23;;;;;;;;;;6186306;23;20217;-91
2021/12/07 15:48:43;;;;;;;1.40;1.10;;;;;;;;;;6186185;23;20203;-91
2021/12/07 15:51:11;;;;;;;2.03;1.20;;;;;;;;;;6186288;23;20179;-91
2021/12/07 15:53:39;;;;;;;1.47;1.10;;;;;;;;;;6186278;23;20174;-91
2021/12/07 15:56:07;;;;;;;1.07;0.97;;;;;;;;;;6185995;23;20179;-91
2021/12/07 15:58:37;;;;;;;2.73;1.00;;;;;;;;;;6186002;23;20170;-91
2021/12/07 16:01:06;;;;;;;2.00;0.90;;;;;;;;;;6185740;23;20226;-91
2021/12/07 16:03:35;;;;;;;4.30;2.03;;;;;;;;;;6185542;23;20516;-92
2021/12/07 16:06:04;;;;;;;1.80;1.30;;;;;;;;;;6186267;23;20178;-92
2021/12/07 16:08:32;;;;;;;7.00;2.17;;;;;;;;;;6185287;23;20195;-91
2021/12/07 16:11:04;;;;;;;4.90;2.70;;;;;;;;;;6185832;23;20245;-91
2021/12/07 16:13:32;;;;;;;6.50;2.37;;;;;;;;;;6186119;23;20174;-91
2021/12/07 16:16:01;;;;;;;3.70;2.40;;;;;;;;;;6185712;23;20179;-91
2021/12/07 16:18:30;;;;;;;7.33;2.33;;;;;;;;;;6185489;23;20174;-91